Time;durP1;ratioP1;P1;durP2;ratioP2;P2;SDS_P1;SDS_P2;PMS_P1;PMS_P2;Temp;Humidity;BMP_temperature;BMP_pressure;BME280_temperature;BME280_humidity;BME280_pressure;Samples;Min_cycle;Max_cycle;Signal;HPM_P1;HPM_P2
2021/01/02 00:01:32;;;;;;;34.53;19.77;;;3.80;99.90;;;;;;5030894;28;20033;-49
2021/01/02 00:04:21;;;;;;;32.92;19.90;;;3.80;99.90;;;;;;5048756;28;20062;-50
2021/01/02 00:07:21;;;;;;;31.60;18.90;;;3.70;99.90;;;;;;5048249;28;20076;-54
2021/01/02 00:09:53;;;;;;;28.85;17.27;;;3.70;99.90;;;;;;5049059;28;20124;-50
2021/01/02 00:13:05;;;;;;;35.42;18.80;;;3.70;99.90;;;;;;5030728;28;20033;-48
2021/01/02 00:15:56;;;;;;;34.40;19.10;;;3.70;99.90;;;;;;5026227;28;20048;-46
2021/01/02 00:18:35;;;;;;;31.23;19.13;;;3.70;99.90;;;;;;5049322;28;20435;-52
2021/01/02 00:21:15;;;;;;;26.70;17.92;;;3.70;99.90;;;;;;5049881;28;20017;-52
2021/01/02 00:24:00;;;;;;;29.42;18.85;;;3.70;99.90;;;;;;5049915;28;20135;-52
2021/01/02 00:26:31;;;;;;;28.00;17.20;;;3.70;99.90;;;;;;5049507;28;20025;-50
2021/01/02 00:28:57;;;;;;;24.95;16.10;;;3.70;99.90;;;;;;5049800;28;20290;-50
2021/01/02 00:31:50;;;;;;;33.08;18.92;;;3.80;99.90;;;;;;5049763;28;20025;-51
2021/01/02 00:34:25;;;;;;;32.05;18.60;;;3.80;99.90;;;;;;5049661;28;20028;-51
2021/01/02 00:37:16;;;;;;;25.00;16.77;;;3.80;99.90;;;;;;5049251;28;20540;-50
2021/01/02 00:39:54;;;;;;;27.92;17.75;;;3.80;99.90;;;;;;5031469;28;20040;-53
2021/01/02 00:42:21;;;;;;;27.67;17.40;;;3.70;99.90;;;;;;5049721;28;20027;-48
2021/01/02 00:44:47;;;;;;;31.20;18.58;;;3.80;99.90;;;;;;5049588;28;20029;-54
2021/01/02 00:47:14;;;;;;;27.65;17.17;;;3.70;99.90;;;;;;5048450;28;20406;-50
2021/01/02 00:49:43;;;;;;;28.67;18.30;;;3.80;99.90;;;;;;5049612;28;20288;-51
2021/01/02 00:52:25;;;;;;;25.92;15.95;;;3.80;99.90;;;;;;5049427;28;20025;-49
2021/01/02 00:55:26;;;;;;;27.27;16.90;;;3.80;99.90;;;;;;5049170;28;20040;-49
2021/01/02 00:58:22;;;;;;;30.70;16.08;;;3.80;99.90;;;;;;5016848;28;20414;-50
2021/01/02 01:00:55;;;;;;;;;;;3.70;99.90;;;;;;5032044;28;20025;-52
2021/01/02 01:04:18;;;;;;;26.83;16.75;;;3.70;99.90;;;;;;5049217;28;19913;-52
2021/01/02 01:06:47;;;;;;;32.33;17.70;;;3.70;99.90;;;;;;4967425;28;20070;-49
2021/01/02 01:09:16;;;;;;;32.90;18.98;;;3.70;99.90;;;;;;4967691;28;20041;-50
2021/01/02 01:11:45;;;;;;;32.40;18.38;;;3.70;99.90;;;;;;5001540;28;20029;-47
2021/01/02 01:14:11;;;;;;;27.80;17.65;;;3.60;99.90;;;;;;5048920;28;20025;-49
2021/01/02 01:16:43;;;;;;;26.50;16.85;;;3.70;99.90;;;;;;5076676;22;20098;-57
2021/01/02 01:19:12;;;;;;;29.95;16.83;;;3.70;99.90;;;;;;5068588;28;20035;-57
2021/01/02 01:21:44;;;;;;;33.58;18.75;;;3.70;99.90;;;;;;5068755;28;20448;-58
2021/01/02 01:24:12;;;;;;;28.65;17.15;;;3.60;99.90;;;;;;5068050;28;20032;-58
2021/01/02 01:27:35;;;;;;;32.28;19.10;;;3.60;99.90;;;;;;5067741;28;20024;-55
2021/01/02 01:30:03;;;;;;;28.38;17.38;;;3.60;99.90;;;;;;5025722;28;20049;-59
2021/01/02 01:32:29;;;;;;;26.60;16.20;;;3.70;99.90;;;;;;5025586;28;20518;-59
2021/01/02 01:35:00;;;;;;;30.85;17.33;;;3.70;99.90;;;;;;5045758;28;20041;-61
2021/01/02 01:37:28;;;;;;;30.50;18.42;;;3.70;99.90;;;;;;5067467;28;20095;-60
2021/01/02 01:39:55;;;;;;;30.70;17.08;;;3.70;99.90;;;;;;5068367;28;20025;-60
2021/01/02 01:42:36;;;;;;;27.75;18.23;;;3.70;99.90;;;;;;5068369;28;20036;-55
2021/01/02 01:45:25;;;;;;;26.05;16.65;;;3.70;99.90;;;;;;5068323;28;20064;-55
2021/01/02 01:48:11;;;;;;;28.23;17.77;;;3.60;99.90;;;;;;5067214;28;20078;-56
2021/01/02 01:50:59;;;;;;;29.65;16.38;;;3.60;99.90;;;;;;5050201;28;20124;-59
2021/01/02 01:53:49;;;;;;;29.33;18.10;;;3.70;99.90;;;;;;5068354;28;20440;-58
2021/01/02 01:56:24;;;;;;;27.77;18.23;;;3.70;99.90;;;;;;5068006;28;20024;-56
2021/01/02 01:58:53;;;;;;;29.48;18.02;;;3.70;99.90;;;;;;5069783;28;20068;-54
2021/01/02 02:01:26;;;;;;;28.55;17.85;;;3.70;99.90;;;;;;5072800;28;20025;-60
2021/01/02 02:04:09;;;;;;;25.85;16.55;;;3.70;99.90;;;;;;5073841;28;20032;-58
2021/01/02 02:06:38;;;;;;;27.15;17.40;;;3.70;99.90;;;;;;5073059;28;20396;-57
2021/01/02 02:09:04;;;;;;;26.77;17.23;;;3.70;99.90;;;;;;5073782;28;20162;-56
2021/01/02 02:11:36;;;;;;;23.20;15.27;;;3.60;99.90;;;;;;5073771;28;20457;-54
2021/01/02 02:14:16;;;;;;;30.92;18.33;;;3.60;99.90;;;;;;5055643;28;20532;-57
2021/01/02 02:16:57;;;;;;;28.40;17.38;;;3.70;99.90;;;;;;5072768;28;20155;-55
2021/01/02 02:19:53;;;;;;;26.70;16.05;;;3.70;99.90;;;;;;5073549;28;20070;-56
2021/01/02 02:22:21;;;;;;;;;;;3.70;99.90;;;;;;5073919;28;20021;-56
2021/01/02 02:24:50;;;;;;;25.67;15.85;;;3.60;99.90;;;;;;5055423;28;19906;-57
2021/01/02 02:27:23;;;;;;;27.75;17.35;;;3.60;99.90;;;;;;5072709;28;20588;-57
2021/01/02 02:30:08;;;;;;;25.25;15.35;;;3.60;99.90;;;;;;5073527;28;20029;-55
2021/01/02 02:32:38;;;;;;;26.95;16.65;;;3.60;99.90;;;;;;5073420;28;20390;-56
2021/01/02 02:35:20;;;;;;;23.90;14.98;;;3.60;99.90;;;;;;5073785;28;20121;-56
2021/01/02 02:37:49;;;;;;;23.00;14.45;;;3.60;99.90;;;;;;5054757;28;20031;-58
2021/01/02 02:40:17;;;;;;;23.02;14.75;;;3.60;99.90;;;;;;5073187;28;20462;-53
2021/01/02 02:42:53;;;;;;;24.90;15.70;;;3.60;99.90;;;;;;5072884;28;20031;-55
2021/01/02 02:45:18;;;;;;;;;;;3.60;99.90;;;;;;5073639;28;20052;-56
2021/01/02 02:47:47;;;;;;;23.38;14.10;;;3.60;99.90;;;;;;5072818;28;19912;-59
2021/01/02 02:50:23;;;;;;;23.80;15.25;;;3.50;99.90;;;;;;5055036;28;20021;-58
2021/01/02 02:53:12;;;;;;;22.52;14.75;;;3.60;99.90;;;;;;5073221;28;20477;-58
2021/01/02 02:55:39;;;;;;;25.25;16.08;;;3.60;99.90;;;;;;5073383;28;20021;-55
2021/01/02 02:58:05;;;;;;;25.45;16.48;;;3.60;99.90;;;;;;5072319;28;20493;-55
2021/01/02 03:00:32;;;;;;;24.85;16.10;;;3.60;99.90;;;;;;5071076;28;20047;-55
2021/01/02 03:02:57;;;;;;;26.02;17.65;;;3.50;99.90;;;;;;5072871;28;20025;-56
2021/01/02 03:05:23;;;;;;;28.23;17.10;;;3.50;99.90;;;;;;5072852;28;20363;-54
2021/01/02 03:07:50;;;;;;;31.58;18.30;;;3.60;99.90;;;;;;5072114;28;20033;-58
2021/01/02 03:10:17;;;;;;;28.15;17.15;;;3.50;99.90;;;;;;5072486;28;20036;-56
2021/01/02 03:12:45;;;;;;;28.27;16.67;;;3.50;99.90;;;;;;5072724;28;20129;-55
2021/01/02 03:15:16;;;;;;;29.17;17.92;;;3.50;99.90;;;;;;5072525;28;20060;-54
2021/01/02 03:17:42;;;;;;;25.35;16.35;;;3.50;99.90;;;;;;5054057;28;20111;-51
2021/01/02 03:20:09;;;;;;;30.52;18.45;;;3.30;99.90;;;;;;5054556;28;20021;-50
2021/01/02 03:22:37;;;;;;;34.20;18.60;;;3.40;99.90;;;;;;5055360;28;20086;-56
2021/01/02 03:25:03;;;;;;;30.50;18.83;;;3.30;99.90;;;;;;5072561;28;20116;-53
2021/01/02 03:27:29;;;;;;;31.15;18.73;;;3.30;99.90;;;;;;5053889;28;20469;-55
2021/01/02 03:29:54;;;;;;;34.45;19.85;;;3.30;99.90;;;;;;5072475;28;20028;-57
2021/01/02 03:32:20;;;;;;;36.25;20.00;;;3.30;99.90;;;;;;5072455;28;20292;-56
2021/01/02 03:34:45;;;;;;;34.95;20.95;;;3.30;99.90;;;;;;5072526;28;20020;-55
2021/01/02 03:37:11;;;;;;;28.77;18.77;;;3.10;99.90;;;;;;5071744;28;20052;-57
2021/01/02 03:39:36;;;;;;;33.75;20.20;;;3.20;99.90;;;;;;5072358;28;20029;-51
2021/01/02 03:42:02;;;;;;;32.65;19.73;;;3.20;99.90;;;;;;5072297;28;20425;-53
2021/01/02 03:44:28;;;;;;;37.28;19.10;;;3.20;99.90;;;;;;5072175;28;20103;-54
2021/01/02 03:46:53;;;;;;;36.95;20.55;;;3.20;99.90;;;;;;5071420;28;20032;-50
2021/01/02 03:49:19;;;;;;;34.28;19.55;;;3.30;99.90;;;;;;5072120;28;20050;-62
2021/01/02 03:51:44;;;;;;;34.03;20.00;;;3.20;99.90;;;;;;5072070;28;20021;-54
2021/01/02 03:54:10;;;;;;;37.72;20.23;;;3.20;99.90;;;;;;5071902;28;20024;-57
2021/01/02 03:56:35;;;;;;;32.33;18.98;;;3.20;99.90;;;;;;5053850;28;20023;-58
2021/01/02 03:59:01;;;;;;;30.70;19.80;;;3.10;99.90;;;;;;5071380;28;20044;-54
2021/01/02 04:01:26;;;;;;;30.08;18.45;;;3.10;99.90;;;;;;5052862;28;20111;-54
2021/01/02 04:03:52;;;;;;;32.35;19.02;;;3.20;99.90;;;;;;5071765;28;20044;-52
2021/01/02 04:06:25;;;;;;;30.23;17.90;;;3.20;99.90;;;;;;5071544;28;20067;-56
2021/01/02 04:08:50;;;;;;;34.10;19.05;;;3.20;99.90;;;;;;5053359;28;20055;-48
2021/01/02 04:11:16;;;;;;;35.05;20.20;;;3.20;99.90;;;;;;5072099;28;20024;-50
2021/01/02 04:13:41;;;;;;;34.67;19.95;;;3.20;99.90;;;;;;5071624;28;20024;-58
2021/01/02 04:16:07;;;;;;;36.88;20.95;;;3.30;99.90;;;;;;5061381;28;20035;-63
2021/01/02 04:18:33;;;;;;;36.28;20.50;;;3.20;99.90;;;;;;5070020;28;20074;-59
2021/01/02 04:21:00;;;;;;;34.13;20.23;;;3.20;99.90;;;;;;5070402;28;20031;-56
2021/01/02 04:23:25;;;;;;;34.50;19.65;;;3.20;99.90;;;;;;5070304;28;20359;-55
2021/01/02 04:25:51;;;;;;;44.80;21.70;;;3.10;99.90;;;;;;5070315;28;20046;-53
2021/01/02 04:28:17;;;;;;;41.55;21.83;;;3.10;99.90;;;;;;5069803;28;20043;-55
2021/01/02 04:30:42;;;;;;;40.03;20.50;;;2.90;99.90;;;;;;5070212;28;20023;-55
2021/01/02 04:33:08;;;;;;;33.22;20.17;;;2.90;99.90;;;;;;5051383;28;20025;-64
2021/01/02 04:35:34;;;;;;;42.00;21.60;;;2.80;99.90;;;;;;5052442;28;20462;-65
2021/01/02 04:38:01;;;;;;;35.53;21.70;;;2.80;99.90;;;;;;5069278;28;20036;-64
2021/01/02 04:40:27;;;;;;;38.35;21.48;;;2.90;99.90;;;;;;5052154;28;20059;-61
2021/01/02 04:42:52;;;;;;;40.47;21.65;;;2.90;99.90;;;;;;5070107;28;20056;-62
2021/01/02 04:45:20;;;;;;;40.20;23.17;;;2.90;99.90;;;;;;5069912;28;20089;-62
2021/01/02 04:47:46;;;;;;;37.20;22.42;;;2.90;99.90;;;;;;5069520;28;20024;-60
2021/01/02 04:50:12;;;;;;;38.38;21.90;;;2.90;99.90;;;;;;5069936;28;20431;-62
2021/01/02 04:52:38;;;;;;;39.13;23.02;;;2.90;99.90;;;;;;5069748;28;20063;-62
2021/01/02 04:55:06;;;;;;;42.80;22.67;;;3.00;99.90;;;;;;5070175;28;20032;-60
2021/01/02 04:57:37;;;;;;;41.22;22.75;;;3.00;99.90;;;;;;5068752;28;20028;-55
2021/01/02 05:00:09;;;;;;;48.63;25.23;;;3.00;99.90;;;;;;5069680;28;20028;-56
2021/01/02 05:02:39;;;;;;;49.33;24.98;;;3.00;99.90;;;;;;5070632;28;20020;-52
2021/01/02 05:05:06;;;;;;;44.85;23.80;;;2.90;99.90;;;;;;5070614;28;20028;-57
2021/01/02 05:07:33;;;;;;;43.63;23.98;;;3.00;99.90;;;;;;5051707;28;20101;-54
2021/01/02 05:09:58;;;;;;;40.10;22.48;;;3.00;99.90;;;;;;5070509;28;20044;-56
2021/01/02 05:12:32;;;;;;;42.75;24.45;;;3.00;99.90;;;;;;5070489;28;20020;-50
2021/01/02 05:14:58;;;;;;;42.05;23.02;;;3.00;99.90;;;;;;5070439;28;20027;-57
2021/01/02 05:17:28;;;;;;;46.95;25.83;;;3.00;99.90;;;;;;5051853;28;20029;-55
2021/01/02 05:20:02;;;;;;;43.55;23.45;;;3.00;99.90;;;;;;5070370;28;20021;-54
2021/01/02 05:22:28;;;;;;;47.53;23.35;;;2.90;99.90;;;;;;5070485;28;20032;-55
2021/01/02 05:25:07;;;;;;;47.15;24.15;;;2.90;99.90;;;;;;5070536;28;20056;-53
2021/01/02 05:27:34;;;;;;;45.28;23.73;;;2.80;99.90;;;;;;5069644;28;20024;-56
2021/01/02 05:30:25;;;;;;;41.10;22.65;;;2.80;99.90;;;;;;5070338;28;20432;-56
2021/01/02 05:33:01;;;;;;;53.70;25.05;;;2.70;99.90;;;;;;5070991;28;20163;-56
2021/01/02 05:35:47;;;;;;;42.13;22.42;;;2.70;99.90;;;;;;5074447;28;20016;-52
2021/01/02 05:38:22;;;;;;;46.03;25.05;;;2.60;99.90;;;;;;5073743;28;20116;-58
2021/01/02 05:40:51;;;;;;;46.15;23.80;;;2.60;99.90;;;;;;5074853;28;20028;-55
2021/01/02 05:43:19;;;;;;;43.92;24.45;;;2.60;99.90;;;;;;5074498;28;20029;-56
2021/01/02 05:45:45;;;;;;;43.75;23.85;;;2.60;99.90;;;;;;5074245;28;20020;-56
2021/01/02 05:48:19;;;;;;;47.50;25.13;;;2.70;99.90;;;;;;5073379;28;20036;-54
2021/01/02 05:50:59;;;;;;;47.15;24.35;;;2.60;99.90;;;;;;5074305;28;20019;-54
2021/01/02 05:53:33;;;;;;;47.53;24.67;;;2.60;99.90;;;;;;5074183;28;20079;-53
2021/01/02 05:56:07;;;;;;;42.22;24.50;;;2.60;99.90;;;;;;5073978;28;20027;-56
2021/01/02 05:58:41;;;;;;;46.20;24.15;;;2.60;99.90;;;;;;5073270;28;20077;-54
2021/01/02 06:01:12;;;;;;;40.63;22.20;;;2.70;99.90;;;;;;5073266;28;20400;-54
2021/01/02 06:03:39;;;;;;;42.20;22.02;;;2.70;99.90;;;;;;5073969;28;20028;-55
2021/01/02 06:06:10;;;;;;;43.45;23.45;;;2.70;99.90;;;;;;5073736;28;20033;-55
2021/01/02 06:08:37;;;;;;;42.10;21.90;;;2.70;99.90;;;;;;5055242;28;20098;-55
2021/01/02 06:11:06;;;;;;;45.15;24.05;;;2.70;99.90;;;;;;5073885;28;20476;-55
2021/01/02 06:13:34;;;;;;;38.30;21.08;;;2.70;99.90;;;;;;5073765;28;20020;-53
2021/01/02 06:16:02;;;;;;;40.75;22.05;;;2.60;99.90;;;;;;5055441;28;20024;-58
2021/01/02 06:18:29;;;;;;;42.47;21.42;;;2.50;99.90;;;;;;5072904;28;20115;-57
2021/01/02 06:20:56;;;;;;;47.42;23.70;;;2.50;99.90;;;;;;5073555;28;20028;-55
2021/01/02 06:23:25;;;;;;;46.92;25.77;;;2.50;99.90;;;;;;5073487;28;20024;-58
2021/01/02 06:25:53;;;;;;;47.70;25.88;;;2.50;99.90;;;;;;5073165;28;20064;-54
2021/01/02 06:28:19;;;;;;;44.72;25.80;;;2.60;99.90;;;;;;5054535;28;20349;-54
2021/01/02 06:30:44;;;;;;;44.00;25.90;;;2.60;99.90;;;;;;5073231;28;20478;-56
2021/01/02 06:33:17;;;;;;;46.60;25.65;;;2.60;99.90;;;;;;5055354;28;20036;-58
2021/01/02 06:35:44;;;;;;;44.00;26.08;;;2.60;99.90;;;;;;5073284;28;20032;-56
2021/01/02 06:38:12;;;;;;;43.13;25.90;;;2.60;99.90;;;;;;5072935;28;20063;-55
2021/01/02 06:40:43;;;;;;;42.50;22.55;;;2.60;99.90;;;;;;5073174;28;20028;-55
2021/01/02 06:43:14;;;;;;;40.92;22.15;;;2.60;99.90;;;;;;5073142;28;20081;-56
2021/01/02 06:45:40;;;;;;;40.80;21.10;;;2.80;99.90;;;;;;5072449;28;20043;-55
2021/01/02 06:48:20;;;;;;;44.67;22.45;;;2.80;99.90;;;;;;5072350;28;20021;-52
2021/01/02 06:50:48;;;;;;;41.95;22.20;;;2.80;99.90;;;;;;5073152;28;20262;-55
2021/01/02 06:53:35;;;;;;;43.72;21.48;;;2.80;99.90;;;;;;5072941;28;20111;-54
2021/01/02 06:56:09;;;;;;;39.97;21.77;;;2.70;99.90;;;;;;5055162;28;20020;-57
2021/01/02 06:58:42;;;;;;;40.92;21.38;;;2.70;99.90;;;;;;5072289;28;20457;-57
2021/01/02 07:01:09;;;;;;;40.63;22.13;;;2.70;99.90;;;;;;5071864;28;20029;-55
2021/01/02 07:03:48;;;;;;;37.83;21.45;;;2.80;99.90;;;;;;5055083;28;20021;-56
2021/01/02 07:06:23;;;;;;;40.97;22.48;;;2.80;99.90;;;;;;5073207;28;20375;-58
2021/01/02 07:08:52;;;;;;;42.20;22.40;;;2.90;99.90;;;;;;5072854;28;20020;-57
2021/01/02 07:11:29;;;;;;;43.40;22.05;;;2.90;99.90;;;;;;5073332;28;20021;-55
2021/01/02 07:14:10;;;;;;;40.67;22.10;;;2.80;99.90;;;;;;5073214;28;20016;-55
2021/01/02 07:16:42;;;;;;;41.83;24.08;;;2.70;99.90;;;;;;5087430;22;20047;-52
2021/01/02 07:19:23;;;;;;;43.55;21.52;;;2.70;99.90;;;;;;5054144;28;20036;-48
2021/01/02 07:21:55;;;;;;;42.00;22.63;;;2.60;99.90;;;;;;5073058;28;20367;-51
2021/01/02 07:24:21;;;;;;;40.90;22.08;;;2.60;99.90;;;;;;5072735;28;20086;-52
2021/01/02 07:26:47;;;;;;;39.58;21.65;;;2.60;99.90;;;;;;5072798;28;20028;-51
2021/01/02 07:29:17;;;;;;;36.83;21.08;;;2.70;99.90;;;;;;5071633;28;20111;-53
2021/01/02 07:31:43;;;;;;;46.05;23.55;;;2.80;99.90;;;;;;5072297;28;20509;-53
2021/01/02 07:34:22;;;;;;;45.40;23.75;;;2.90;99.90;;;;;;5054332;28;20021;-54
2021/01/02 07:36:51;;;;;;;45.25;23.30;;;2.90;99.90;;;;;;5072362;28;20436;-53
2021/01/02 07:39:19;;;;;;;46.42;24.38;;;2.80;99.90;;;;;;5071549;28;20045;-54
2021/01/02 07:41:45;;;;;;;56.10;24.58;;;2.70;99.90;;;;;;5071687;28;20024;-50
2021/01/02 07:44:11;;;;;;;50.67;24.02;;;2.70;99.90;;;;;;5072011;28;20048;-53
2021/01/02 07:46:44;;;;;;;45.35;23.38;;;2.70;99.90;;;;;;5072261;28;20039;-52
2021/01/02 07:49:11;;;;;;;42.40;22.70;;;2.60;99.90;;;;;;5071440;28;20060;-50
2021/01/02 07:51:38;;;;;;;38.88;21.88;;;2.60;99.90;;;;;;5072008;28;20386;-51
2021/01/02 07:54:04;;;;;;;41.85;22.27;;;2.60;99.90;;;;;;5071902;28;20052;-52
2021/01/02 07:56:38;;;;;;;36.55;21.17;;;2.70;99.90;;;;;;5070604;28;20024;-56
2021/01/02 07:59:22;;;;;;;35.75;20.40;;;2.80;99.90;;;;;;5071565;28;20541;-56
2021/01/02 08:01:52;;;;;;;39.67;20.10;;;2.80;99.90;;;;;;5071071;28;20020;-54
2021/01/02 08:04:18;;;;;;;41.28;20.50;;;2.90;99.90;;;;;;5054504;28;20127;-52
2021/01/02 08:06:49;;;;;;;37.55;19.77;;;3.00;99.90;;;;;;5071796;28;20024;-53
2021/01/02 08:09:14;;;;;;;31.10;18.02;;;3.00;99.90;;;;;;5071350;28;20567;-50
2021/01/02 08:11:52;;;;;;;34.92;19.17;;;2.90;99.90;;;;;;5071646;28;20032;-55
2021/01/02 08:14:18;;;;;;;34.22;19.75;;;2.90;99.90;;;;;;5071629;28;20390;-51
2021/01/02 08:17:01;;;;;;;35.15;18.38;;;2.90;99.90;;;;;;5071584;28;20119;-54
2021/01/02 08:19:29;;;;;;;34.22;18.40;;;2.90;99.90;;;;;;5052888;28;20098;-55
2021/01/02 08:21:54;;;;;;;31.33;18.52;;;3.00;99.90;;;;;;5071470;28;20020;-52
2021/01/02 08:24:20;;;;;;;31.45;19.15;;;3.10;99.90;;;;;;5071025;28;20028;-55
2021/01/02 08:26:49;;;;;;;36.60;19.27;;;3.10;99.90;;;;;;5070910;28;20032;-49
2021/01/02 08:29:15;;;;;;;32.25;18.58;;;3.10;99.90;;;;;;5070225;28;20025;-49
2021/01/02 08:31:50;;;;;;;28.27;17.42;;;3.00;99.90;;;;;;5070898;28;20505;-52
2021/01/02 08:34:24;;;;;;;33.03;18.30;;;3.00;99.90;;;;;;5071028;28;20290;-53
2021/01/02 08:36:50;;;;;;;34.60;18.40;;;2.90;99.90;;;;;;5071077;28;20024;-51
2021/01/02 08:39:19;;;;;;;32.55;18.50;;;2.90;99.90;;;;;;5070204;28;20031;-54
2021/01/02 08:41:52;;;;;;;29.63;17.52;;;2.90;99.90;;;;;;5070805;28;20024;-53
2021/01/02 08:44:44;;;;;;;51.08;18.63;;;3.00;99.90;;;;;;5070753;28;20020;-50
2021/01/02 08:47:10;;;;;;;32.42;18.80;;;3.00;99.90;;;;;;5065263;28;20520;-51
2021/01/02 08:49:45;;;;;;;33.75;19.13;;;3.00;99.90;;;;;;5069983;28;20025;-51
2021/01/02 08:52:17;;;;;;;33.25;20.23;;;3.10;99.90;;;;;;5070745;28;20042;-53
2021/01/02 08:54:43;;;;;;;30.98;18.98;;;3.10;99.90;;;;;;5052989;28;20029;-51
2021/01/02 08:57:28;;;;;;;32.40;19.23;;;3.10;99.90;;;;;;5070623;28;20031;-51
2021/01/02 09:00:08;;;;;;;41.20;20.50;;;3.00;99.90;;;;;;5069357;28;20028;-52
2021/01/02 09:02:34;;;;;;;39.05;21.23;;;3.00;99.90;;;;;;5052402;28;20316;-53
2021/01/02 09:05:09;;;;;;;29.20;18.83;;;3.10;99.90;;;;;;5052607;28;20020;-51
2021/01/02 09:07:35;;;;;;;33.75;17.73;;;3.30;99.90;;;;;;5069458;28;20044;-56
2021/01/02 09:10:27;;;;;;;36.38;18.15;;;3.40;99.90;;;;;;5052973;28;20119;-53
2021/01/02 09:13:17;;;;;;;31.83;17.15;;;3.50;99.90;;;;;;5070569;28;20440;-51
2021/01/02 09:15:47;;;;;;;29.88;17.67;;;3.60;99.90;;;;;;5070243;28;20024;-52
2021/01/02 09:18:25;;;;;;;31.83;18.60;;;3.70;99.90;;;;;;5069726;28;20112;-52
2021/01/02 09:20:50;;;;;;;32.20;18.45;;;3.70;99.90;;;;;;5070570;28;20543;-54
2021/01/02 09:23:29;;;;;;;31.45;18.88;;;3.70;99.90;;;;;;5070450;28;20040;-50
2021/01/02 09:25:54;;;;;;;31.88;18.58;;;3.70;99.90;;;;;;5070308;28;20047;-53
2021/01/02 09:28:20;;;;;;;30.60;18.90;;;3.80;99.90;;;;;;5069739;28;20028;-53
2021/01/02 09:30:46;;;;;;;37.53;19.45;;;3.70;99.90;;;;;;5052243;28;20443;-52
2021/01/02 09:33:12;;;;;;;28.60;17.55;;;3.80;99.90;;;;;;5070282;28;20521;-52
2021/01/02 09:35:40;;;;;;;31.15;18.65;;;3.80;99.90;;;;;;5070241;28;20032;-52
2021/01/02 09:38:05;;;;;;;34.72;18.90;;;3.80;99.90;;;;;;5069209;28;20074;-53
2021/01/02 09:40:33;;;;;;;33.30;18.75;;;3.90;99.90;;;;;;5052230;28;20119;-56
2021/01/02 09:42:59;;;;;;;28.83;17.13;;;3.90;99.90;;;;;;5071101;28;20028;-54
2021/01/02 09:45:25;;;;;;;28.15;16.00;;;3.80;99.90;;;;;;5052449;28;20125;-52
2021/01/02 09:47:50;;;;;;;27.65;16.80;;;3.80;99.90;;;;;;5051478;28;20056;-53
2021/01/02 09:50:16;;;;;;;32.20;16.05;;;3.70;99.90;;;;;;5070435;28;20086;-56
2021/01/02 09:52:41;;;;;;;31.05;16.90;;;3.70;99.90;;;;;;5070566;28;20021;-56
2021/01/02 09:55:08;;;;;;;27.98;16.67;;;3.80;99.90;;;;;;5052676;28;20074;-55
2021/01/02 09:57:33;;;;;;;27.02;14.95;;;3.80;99.90;;;;;;5052266;28;20024;-58
2021/01/02 09:59:58;;;;;;;23.25;14.50;;;3.90;99.90;;;;;;5051857;28;20032;-58
2021/01/02 10:02:24;;;;;;;25.35;14.70;;;3.80;99.90;;;;;;5070855;28;20025;-53
2021/01/02 10:04:50;;;;;;;32.67;16.60;;;3.70;99.90;;;;;;5052407;28;20035;-51
2021/01/02 10:07:19;;;;;;;30.75;17.85;;;3.80;99.90;;;;;;5052696;28;20077;-53
2021/01/02 10:09:46;;;;;;;24.35;14.93;;;3.80;99.90;;;;;;5069703;28;20055;-52
2021/01/02 10:12:14;;;;;;;31.20;16.67;;;3.70;99.90;;;;;;5070099;28;20013;-52
2021/01/02 10:14:40;;;;;;;30.15;16.65;;;3.80;99.90;;;;;;5070256;28;20389;-53
2021/01/02 10:17:07;;;;;;;27.55;16.30;;;3.80;99.90;;;;;;5052182;28;20037;-57
2021/01/02 10:19:32;;;;;;;23.30;15.18;;;3.80;99.90;;;;;;5052108;28;20025;-55
2021/01/02 10:22:02;;;;;;;25.55;15.15;;;3.80;99.90;;;;;;5074347;28;20031;-56
2021/01/02 10:24:29;;;;;;;27.05;15.38;;;3.80;99.90;;;;;;5074089;28;20028;-52
2021/01/02 10:26:54;;;;;;;26.27;14.52;;;3.80;99.90;;;;;;5073996;28;20439;-58
2021/01/02 10:29:20;;;;;;;26.95;14.70;;;3.80;99.90;;;;;;5072857;28;20051;-53
2021/01/02 10:31:46;;;;;;;18.23;12.38;;;3.80;99.90;;;;;;5073547;28;20063;-55
2021/01/02 10:34:12;;;;;;;20.63;13.15;;;3.90;99.90;;;;;;5073708;28;20439;-49
2021/01/02 10:36:37;;;;;;;22.75;12.57;;;3.90;99.90;;;;;;5073621;28;20086;-49
2021/01/02 10:39:04;;;;;;;22.90;13.93;;;3.90;99.90;;;;;;5055154;28;20026;-54
2021/01/02 10:41:30;;;;;;;24.77;14.55;;;3.90;99.90;;;;;;5073651;28;20028;-53
2021/01/02 10:43:55;;;;;;;20.58;12.38;;;3.90;99.90;;;;;;5073415;28;20028;-52
2021/01/02 10:46:21;;;;;;;17.20;11.98;;;3.90;99.90;;;;;;5055387;28;20031;-51
2021/01/02 10:48:46;;;;;;;19.88;12.13;;;4.00;99.90;;;;;;5072848;28;20032;-52
2021/01/02 10:51:17;;;;;;;20.75;12.10;;;4.00;99.90;;;;;;5073205;28;20024;-54
2021/01/02 10:53:43;;;;;;;20.77;12.23;;;4.00;99.90;;;;;;5055265;28;20486;-49
2021/01/02 10:56:11;;;;;;;19.92;12.48;;;3.90;99.90;;;;;;5054984;28;20032;-50
2021/01/02 10:58:36;;;;;;;16.45;11.13;;;3.90;99.90;;;;;;5072075;28;20037;-54
2021/01/02 11:01:04;;;;;;;18.23;11.55;;;3.90;99.90;;;;;;5071836;28;20032;-51
2021/01/02 11:03:30;;;;;;;15.75;10.13;;;3.90;99.90;;;;;;5073281;28;20478;-52
2021/01/02 11:05:56;;;;;;;19.35;10.82;;;3.90;99.90;;;;;;5072735;28;20048;-50
2021/01/02 11:08:21;;;;;;;18.30;11.27;;;3.90;99.90;;;;;;5072265;28;20491;-53
2021/01/02 11:10:47;;;;;;;18.23;12.10;;;3.90;99.90;;;;;;5073057;28;20390;-54
2021/01/02 11:13:12;;;;;;;17.08;10.45;;;4.00;99.90;;;;;;5072784;28;20393;-52
2021/01/02 11:15:38;;;;;;;17.50;10.63;;;4.10;99.90;;;;;;5072554;28;20025;-51
2021/01/02 11:18:04;;;;;;;20.70;10.88;;;4.20;99.80;;;;;;5053885;28;20062;-52
2021/01/02 11:20:29;;;;;;;17.92;10.13;;;4.10;99.90;;;;;;5069538;28;20028;-54
2021/01/02 11:22:55;;;;;;;18.73;10.05;;;4.10;99.80;;;;;;5062267;28;20397;-52
2021/01/02 11:25:20;;;;;;;13.02;8.55;;;4.00;98.90;;;;;;5069700;28;20462;-53
2021/01/02 11:27:46;;;;;;;12.43;8.18;;;4.00;98.30;;;;;;5069813;28;20024;-55
2021/01/02 11:30:12;;;;;;;13.48;8.57;;;4.10;98.60;;;;;;5068811;28;20033;-52
2021/01/02 11:32:37;;;;;;;12.73;8.93;;;4.10;98.60;;;;;;5070662;28;20036;-52
2021/01/02 11:35:04;;;;;;;16.77;8.95;;;4.00;99.00;;;;;;5056759;28;20017;-56
2021/01/02 11:37:29;;;;;;;14.57;9.95;;;4.00;98.90;;;;;;5057293;28;20025;-53
2021/01/02 11:39:55;;;;;;;13.10;8.70;;;4.00;99.20;;;;;;5053429;28;20028;-55
2021/01/02 11:42:20;;;;;;;12.43;7.85;;;4.10;98.40;;;;;;5071560;28;20033;-54
2021/01/02 11:44:46;;;;;;;13.40;8.73;;;4.10;98.40;;;;;;5053261;28;20044;-48
2021/01/02 11:47:11;;;;;;;12.68;8.18;;;4.20;98.70;;;;;;5056559;28;20020;-53
2021/01/02 11:49:37;;;;;;;17.63;9.30;;;4.20;98.40;;;;;;5071195;28;20524;-47
2021/01/02 11:52:06;;;;;;;14.68;8.60;;;4.30;98.70;;;;;;5072175;28;20189;-52
2021/01/02 11:54:32;;;;;;;13.30;7.45;;;4.40;98.80;;;;;;5072754;28;20516;-52
2021/01/02 11:56:59;;;;;;;14.38;8.25;;;4.50;98.30;;;;;;5072298;28;20035;-62
2021/01/02 11:59:24;;;;;;;13.75;8.10;;;4.60;97.60;;;;;;5071064;28;20051;-47
2021/01/02 12:01:55;;;;;;;12.10;8.43;;;4.60;98.00;;;;;;5071938;28;20074;-47
2021/01/02 12:04:23;;;;;;;11.07;6.80;;;4.50;98.20;;;;;;5071884;28;20243;-50
2021/01/02 12:06:50;;;;;;;10.00;7.15;;;4.60;96.60;;;;;;5071837;28;20359;-47
2021/01/02 12:09:18;;;;;;;12.65;7.40;;;4.60;97.20;;;;;;5071552;28;20268;-49
2021/01/02 12:11:45;;;;;;;11.13;7.30;;;4.70;97.30;;;;;;5071768;28;20135;-48
2021/01/02 12:14:13;;;;;;;10.70;7.35;;;4.70;96.50;;;;;;5072128;28;20129;-46
2021/01/02 12:16:41;;;;;;;12.65;7.22;;;4.70;97.20;;;;;;5071614;28;20055;-46
2021/01/02 12:19:09;;;;;;;9.90;6.78;;;4.70;97.20;;;;;;5070863;28;20024;-48
2021/01/02 12:21:35;;;;;;;10.15;6.82;;;4.80;96.10;;;;;;5071373;28;20239;-48
2021/01/02 12:24:01;;;;;;;9.35;6.57;;;4.70;95.70;;;;;;5071640;28;20063;-48
2021/01/02 12:26:27;;;;;;;7.78;5.70;;;4.70;95.70;;;;;;5064876;28;20040;-50
2021/01/02 12:28:53;;;;;;;5.75;4.55;;;4.70;94.80;;;;;;5050566;28;20025;-50
2021/01/02 12:31:23;;;;;;;7.90;5.55;;;4.70;94.00;;;;;;5055574;28;20096;-47
2021/01/02 12:33:49;;;;;;;7.50;5.15;;;4.70;94.50;;;;;;5057719;28;20021;-51
2021/01/02 12:36:16;;;;;;;6.93;5.13;;;4.80;94.70;;;;;;5071882;28;20502;-51
2021/01/02 12:38:42;;;;;;;9.23;5.80;;;4.80;94.80;;;;;;5050055;28;20037;-51
2021/01/02 12:41:16;;;;;;;16.27;7.43;;;4.90;95.40;;;;;;5066828;28;20065;-52
2021/01/02 12:43:44;;;;;;;10.60;5.03;;;4.90;95.10;;;;;;5070321;28;20112;-46
2021/01/02 12:46:14;;;;;;;8.63;5.70;;;4.90;94.60;;;;;;5054529;28;20040;-51
2021/01/02 12:48:39;;;;;;;6.85;5.10;;;4.80;93.70;;;;;;5053983;28;20029;-45
2021/01/02 12:51:06;;;;;;;7.30;5.10;;;4.70;93.90;;;;;;5060573;28;20025;-51
2021/01/02 12:53:32;;;;;;;6.60;4.47;;;4.70;94.50;;;;;;5052499;28;20021;-46
2021/01/02 12:55:57;;;;;;;5.35;4.43;;;4.70;95.00;;;;;;5058683;28;20043;-45
2021/01/02 12:58:23;;;;;;;7.65;5.45;;;4.70;95.00;;;;;;5070108;28;20482;-50